sensor_id;sensor_type;location;lat;lon;timestamp;pressure;altitude;pressure_sealevel;temperature;humidity
27908;BME280;15249;48.092;11.484;2022-10-23T08:07:56;0;;;0;0
27908;BME280;15249;48.092;11.484;2022-10-23T08:08:57;0;;;0;0
27908;BME280;15249;48.092;11.484;2022-10-23T08:09:57;0;;;0;0
27908;BME280;15249;48.092;11.484;2022-10-23T08:10:58;0;;;0;0
27908;BME280;15249;48.092;11.484;2022-10-23T08:11:58;0;;;0;0
27908;BME280;15249;48.092;11.484;2022-10-23T08:13:00;0;;;0;0
27908;BME280;15249;48.092;11.484;2022-10-23T08:14:03;0;;;0;0
27908;BME280;15249;48.092;11.484;2022-10-23T08:15:04;0;;;0;0
27908;BME280;15249;48.092;11.484;2022-10-23T08:16:06;0;;;0;0
27908;BME280;15249;48.092;11.484;2022-10-23T08:17:08;0;;;0;0
27908;BME280;15249;48.092;11.484;2022-10-23T08:18:09;0;;;0;0
27908;BME280;15249;48.092;11.484;2022-10-23T08:19:10;0;;;0;0
27908;BME280;15249;48.092;11.484;2022-10-23T08:20:12;0;;;0;0
27908;BME280;15249;48.092;11.484;2022-10-23T08:21:13;0;;;0;0
27908;BME280;15249;48.092;11.484;2022-10-23T08:22:13;0;;;0;0
27908;BME280;15249;48.092;11.484;2022-10-23T08:23:17;0;;;0;0
27908;BME280;15249;48.092;11.484;2022-10-23T08:24:17;0;;;0;0
27908;BME280;15249;48.092;11.484;2022-10-23T08:25:18;0;;;0;0
27908;BME280;15249;48.092;11.484;2022-10-23T08:26:19;0;;;0;0
27908;BME280;15249;48.092;11.484;2022-10-23T08:27:19;0;;;0;0
27908;BME280;15249;48.092;11.484;2022-10-23T08:28:20;0;;;0;0
27908;BME280;15249;48.092;11.484;2022-10-23T08:29:20;0;;;0;0
27908;BME280;15249;48.092;11.484;2022-10-23T08:30:21;0;;;0;0
27908;BME280;15249;48.092;11.484;2022-10-23T08:31:21;0;;;0;0
27908;BME280;15249;48.092;11.484;2022-10-23T08:32:22;0;;;0;0
27908;BME280;15249;48.092;11.484;2022-10-23T08:33:23;0;;;0;0
27908;BME280;15249;48.092;11.484;2022-10-23T08:34:23;0;;;0;0
27908;BME280;15249;48.092;11.484;2022-10-23T08:35:24;0;;;0;0
27908;BME280;15249;48.092;11.484;2022-10-23T08:36:26;0;;;0;0
27908;BME280;15249;48.092;11.484;2022-10-23T08:37:26;0;;;0;0
27908;BME280;15249;48.092;11.484;2022-10-23T08:38:27;0;;;0;0
27908;BME280;15249;48.092;11.484;2022-10-23T08:39:28;0;;;0;0
27908;BME280;15249;48.092;11.484;2022-10-23T08:40:28;0;;;0;0
27908;BME280;15249;48.092;11.484;2022-10-23T08:41:32;0;;;0;0
27908;BME280;15249;48.092;11.484;2022-10-23T08:42:36;0;;;0;0
27908;BME280;15249;48.092;11.484;2022-10-23T08:43:40;0;;;0;0
27908;BME280;15249;48.092;11.484;2022-10-23T08:44:51;0;;;0;0
27908;BME280;15249;48.092;11.484;2022-10-23T08:45:56;0;;;0;0
27908;BME280;15249;48.092;11.484;2022-10-23T08:47:03;0;;;0;0
27908;BME280;15249;48.092;11.484;2022-10-23T08:48:10;0;;;0;0
27908;BME280;15249;48.092;11.484;2022-10-23T08:49:22;0;;;0;0
27908;BME280;15249;48.092;11.484;2022-10-23T08:50:31;0;;;0;0
27908;BME280;15249;48.092;11.484;2022-10-23T08:51:36;0;;;0;0
27908;BME280;15249;48.092;11.484;2022-10-23T08:52:43;0;;;0;0
27908;BME280;15249;48.092;11.484;2022-10-23T08:53:50;0;;;0;0
27908;BME280;15249;48.092;11.484;2022-10-23T08:55:00;0;;;0;0
27908;BME280;15249;48.092;11.484;2022-10-23T08:56:05;0;;;0;0
27908;BME280;15249;48.092;11.484;2022-10-23T08:57:12;0;;;0;0
27908;BME280;15249;48.092;11.484;2022-10-23T08:58:18;0;;;0;0
27908;BME280;15249;48.092;11.484;2022-10-23T08:59:26;0;;;0;0
27908;BME280;15249;48.092;11.484;2022-10-23T09:00:28;0;;;0;0
27908;BME280;15249;48.092;11.484;2022-10-23T09:01:35;0;;;0;0
27908;BME280;15249;48.092;11.484;2022-10-23T09:02:40;0;;;0;0
27908;BME280;15249;48.092;11.484;2022-10-23T09:03:42;0;;;0;0
27908;BME280;15249;48.092;11.484;2022-10-23T09:04:45;0;;;0;0
27908;BME280;15249;48.092;11.484;2022-10-23T09:05:56;0;;;0;0
27908;BME280;15249;48.092;11.484;2022-10-23T09:07:11;0;;;0;0
27908;BME280;15249;48.092;11.484;2022-10-23T09:08:26;0;;;0;0
27908;BME280;15249;48.092;11.484;2022-10-23T09:09:46;0;;;0;0
27908;BME280;15249;48.092;11.484;2022-10-23T09:10:57;0;;;0;0
27908;BME280;15249;48.092;11.484;2022-10-23T09:12:04;0;;;0;0
27908;BME280;15249;48.092;11.484;2022-10-23T09:13:23;0;;;0;0
27908;BME280;15249;48.092;11.484;2022-10-23T09:14:35;0;;;0;0
27908;BME280;15249;48.092;11.484;2022-10-23T09:15:41;0;;;0;0
27908;BME280;15249;48.092;11.484;2022-10-23T09:16:54;0;;;0;0
27908;BME280;15249;48.092;11.484;2022-10-23T09:18:01;0;;;0;0
27908;BME280;15249;48.092;11.484;2022-10-23T09:19:11;0;;;0;0
27908;BME280;15249;48.092;11.484;2022-10-23T09:20:17;0;;;0;0
27908;BME280;15249;48.092;11.484;2022-10-23T09:21:18;0;;;0;0
27908;BME280;15249;48.092;11.484;2022-10-23T09:22:18;0;;;0;0
27908;BME280;15249;48.092;11.484;2022-10-23T09:38:26;95298.72;;;28.78;71.67871
27908;BME280;15249;48.092;11.484;2022-10-23T09:39:29;95298.72;;;28.78;71.67871
27908;BME280;15249;48.092;11.484;2022-10-23T09:40:38;95298.72;;;28.78;71.67871
27908;BME280;15249;48.092;11.484;2022-10-23T09:41:41;95298.72;;;28.78;71.67871
27908;BME280;15249;48.092;11.484;2022-10-23T09:42:52;95298.72;;;28.78;71.67871
27908;BME280;15249;48.092;11.484;2022-10-23T09:44:19;95298.72;;;28.78;71.67871
27908;BME280;15249;48.092;11.484;2022-10-23T09:45:22;95298.72;;;28.78;71.67871
27908;BME280;15249;48.092;11.484;2022-10-23T09:46:22;95298.72;;;28.78;71.67871
27908;BME280;15249;48.092;11.484;2022-10-23T09:47:24;95298.72;;;28.78;71.67871
27908;BME280;15249;48.092;11.484;2022-10-23T09:48:25;95298.72;;;28.78;71.67871
27908;BME280;15249;48.092;11.484;2022-10-23T09:49:27;95281.37000000001;;;32.99;65.31348
27908;BME280;15249;48.092;11.484;2022-10-23T09:50:28;95281.37000000001;;;32.99;65.31348
27908;BME280;15249;48.092;11.484;2022-10-23T09:51:29;95281.37000000001;;;32.99;65.31348
27908;BME280;15249;48.092;11.484;2022-10-23T09:52:34;95281.37000000001;;;32.99;65.31348
27908;BME280;15249;48.092;11.484;2022-10-23T09:53:37;95281.37000000001;;;32.99;65.31348
27908;BME280;15249;48.092;11.484;2022-10-23T09:54:44;95281.37000000001;;;32.99;65.31348
27908;BME280;15249;48.092;11.484;2022-10-23T09:55:50;95281.37000000001;;;32.99;65.31348
27908;BME280;15249;48.092;11.484;2022-10-23T09:56:53;95281.37000000001;;;32.99;65.31348
27908;BME280;15249;48.092;11.484;2022-10-23T09:57:54;95281.37000000001;;;32.99;65.31348
27908;BME280;15249;48.092;11.484;2022-10-23T09:58:57;95281.37000000001;;;32.99;65.31348
27908;BME280;15249;48.092;11.484;2022-10-23T10:00:00;95252.61;;;36.72;59.29492
27908;BME280;15249;48.092;11.484;2022-10-23T10:01:02;95252.61;;;36.72;59.29492
27908;BME280;15249;48.092;11.484;2022-10-23T10:02:19;95252.61;;;36.72;59.29492
27908;BME280;15249;48.092;11.484;2022-10-23T10:03:22;95252.61;;;36.72;59.29492
27908;BME280;15249;48.092;11.484;2022-10-23T10:04:32;95252.61;;;36.72;59.29492
27908;BME280;15249;48.092;11.484;2022-10-23T10:05:35;95252.61;;;36.72;59.29492
27908;BME280;15249;48.092;11.484;2022-10-23T10:06:35;95252.61;;;36.72;59.29492
27908;BME280;15249;48.092;11.484;2022-10-23T10:07:37;95252.61;;;36.72;59.29492
27908;BME280;15249;48.092;11.484;2022-10-23T10:08:40;95252.61;;;36.72;59.29492
27908;BME280;15249;48.092;11.484;2022-10-23T10:09:42;95252.61;;;36.72;59.29492
27908;BME280;15249;48.092;11.484;2022-10-23T10:10:46;95250.11;;;39.23;55.89355
27908;BME280;15249;48.092;11.484;2022-10-23T10:11:51;95250.11;;;39.23;55.89355
27908;BME280;15249;48.092;11.484;2022-10-23T10:12:57;95250.11;;;39.23;55.89355
27908;BME280;15249;48.092;11.484;2022-10-23T10:14:16;95250.11;;;39.23;55.89355
27908;BME280;15249;48.092;11.484;2022-10-23T10:15:27;95250.11;;;39.23;55.89355
27908;BME280;15249;48.092;11.484;2022-10-23T10:16:37;95250.11;;;39.23;55.89355
27908;BME280;15249;48.092;11.484;2022-10-23T10:17:48;95250.11;;;39.23;55.89355
27908;BME280;15249;48.092;11.484;2022-10-23T10:18:57;95250.11;;;39.23;55.89355
27908;BME280;15249;48.092;11.484;2022-10-23T10:20:14;95250.11;;;39.23;55.89355
27908;BME280;15249;48.092;11.484;2022-10-23T10:21:20;95250.11;;;39.23;55.89355
27908;BME280;15249;48.092;11.484;2022-10-23T10:22:29;95250.11;;;39.23;55.89355
27908;BME280;15249;48.092;11.484;2022-10-23T10:23:38;95250.11;;;39.23;55.89355
27908;BME280;15249;48.092;11.484;2022-10-23T10:24:50;95250.11;;;39.23;55.89355
27908;BME280;15249;48.092;11.484;2022-10-23T10:25:59;95250.11;;;39.23;55.89355
27908;BME280;15249;48.092;11.484;2022-10-23T10:27:08;95250.11;;;39.23;55.89355
27908;BME280;15249;48.092;11.484;2022-10-23T10:28:24;95250.11;;;39.23;55.89355
27908;BME280;15249;48.092;11.484;2022-10-23T10:29:44;95250.11;;;39.23;55.89355
27908;BME280;15249;48.092;11.484;2022-10-23T10:30:51;95250.11;;;39.23;55.89355
27908;BME280;15249;48.092;11.484;2022-10-23T10:32:03;95225.75;;;41.34;53.5957
27908;BME280;15249;48.092;11.484;2022-10-23T10:33:08;95225.75;;;41.34;53.5957
27908;BME280;15249;48.092;11.484;2022-10-23T10:34:19;95225.75;;;41.34;53.5957
27908;BME280;15249;48.092;11.484;2022-10-23T10:35:27;95225.75;;;41.34;53.5957
27908;BME280;15249;48.092;11.484;2022-10-23T10:36:41;95225.75;;;41.34;53.5957
27908;BME280;15249;48.092;11.484;2022-10-23T10:37:57;95225.75;;;41.34;53.5957
27908;BME280;15249;48.092;11.484;2022-10-23T10:39:08;95225.75;;;41.34;53.5957
27908;BME280;15249;48.092;11.484;2022-10-23T10:40:16;95225.75;;;41.34;53.5957
27908;BME280;15249;48.092;11.484;2022-10-23T10:41:32;95225.75;;;41.34;53.5957
27908;BME280;15249;48.092;11.484;2022-10-23T10:42:43;95203.68;;;41.81;54.18457
27908;BME280;15249;48.092;11.484;2022-10-23T10:43:56;95203.68;;;41.81;54.18457
27908;BME280;15249;48.092;11.484;2022-10-23T10:45:10;95203.68;;;41.81;54.18457
27908;BME280;15249;48.092;11.484;2022-10-23T10:46:17;95203.68;;;41.81;54.18457
27908;BME280;15249;48.092;11.484;2022-10-23T10:47:28;95203.68;;;41.81;54.18457
27908;BME280;15249;48.092;11.484;2022-10-23T10:48:40;95203.68;;;41.81;54.18457
27908;BME280;15249;48.092;11.484;2022-10-23T10:49:47;95203.68;;;41.81;54.18457
27908;BME280;15249;48.092;11.484;2022-10-23T10:50:52;95203.68;;;41.81;54.18457
27908;BME280;15249;48.092;11.484;2022-10-23T10:52:02;95203.68;;;41.81;54.18457
27908;BME280;15249;48.092;11.484;2022-10-23T10:53:12;95203.68;;;41.81;54.18457
27908;BME280;15249;48.092;11.484;2022-10-23T10:54:24;95183.59;;;40.67;55.93848
27908;BME280;15249;48.092;11.484;2022-10-23T10:55:31;95183.59;;;40.67;55.93848
27908;BME280;15249;48.092;11.484;2022-10-23T10:56:36;95183.59;;;40.67;55.93848
27908;BME280;15249;48.092;11.484;2022-10-23T10:57:40;95183.59;;;40.67;55.93848
27908;BME280;15249;48.092;11.484;2022-10-23T10:58:46;95183.59;;;40.67;55.93848
27908;BME280;15249;48.092;11.484;2022-10-23T10:59:50;95183.59;;;40.67;55.93848
27908;BME280;15249;48.092;11.484;2022-10-23T11:00:54;95183.59;;;40.67;55.93848
27908;BME280;15249;48.092;11.484;2022-10-23T11:02:01;95183.59;;;40.67;55.93848
27908;BME280;15249;48.092;11.484;2022-10-23T11:03:10;95183.59;;;40.67;55.93848
27908;BME280;15249;48.092;11.484;2022-10-23T11:04:23;95177.31999999999;;;38.59;59.5
27908;BME280;15249;48.092;11.484;2022-10-23T11:05:30;95177.31999999999;;;38.59;59.5
27908;BME280;15249;48.092;11.484;2022-10-23T11:06:34;95177.31999999999;;;38.59;59.5
27908;BME280;15249;48.092;11.484;2022-10-23T11:07:39;95177.31999999999;;;38.59;59.5
27908;BME280;15249;48.092;11.484;2022-10-23T11:08:41;95177.31999999999;;;38.59;59.5
27908;BME280;15249;48.092;11.484;2022-10-23T11:09:42;95177.31999999999;;;38.59;59.5
27908;BME280;15249;48.092;11.484;2022-10-23T11:10:45;95177.31999999999;;;38.59;59.5
27908;BME280;15249;48.092;11.484;2022-10-23T11:11:47;95177.31999999999;;;38.59;59.5
27908;BME280;15249;48.092;11.484;2022-10-23T11:12:48;95177.31999999999;;;38.59;59.5
27908;BME280;15249;48.092;11.484;2022-10-23T11:13:50;95177.31999999999;;;38.59;59.5
27908;BME280;15249;48.092;11.484;2022-10-23T11:14:51;95166.52;;;35.78;63.6543
27908;BME280;15249;48.092;11.484;2022-10-23T11:15:56;95166.52;;;35.78;63.6543
27908;BME280;15249;48.092;11.484;2022-10-23T11:17:03;95166.52;;;35.78;63.6543
27908;BME280;15249;48.092;11.484;2022-10-23T11:18:14;95166.52;;;35.78;63.6543
27908;BME280;15249;48.092;11.484;2022-10-23T11:19:21;95166.52;;;35.78;63.6543
27908;BME280;15249;48.092;11.484;2022-10-23T11:20:35;95166.52;;;35.78;63.6543
27908;BME280;15249;48.092;11.484;2022-10-23T11:21:41;95166.52;;;35.78;63.6543
27908;BME280;15249;48.092;11.484;2022-10-23T11:22:49;95166.52;;;35.78;63.6543
27908;BME280;15249;48.092;11.484;2022-10-23T11:28:07;95158.96;;;33.57;69.96094
27908;BME280;15249;48.092;11.484;2022-10-23T11:30:27;95158.96;;;33.57;69.96094
27908;BME280;15249;48.092;11.484;2022-10-23T11:31:35;95158.96;;;33.57;69.96094
27908;BME280;15249;48.092;11.484;2022-10-23T11:33:18;95158.96;;;33.57;69.96094
27908;BME280;15249;48.092;11.484;2022-10-23T11:34:38;95158.96;;;33.57;69.96094
27908;BME280;15249;48.092;11.484;2022-10-23T11:35:50;95160.77;;;32;73.74414
27908;BME280;15249;48.092;11.484;2022-10-23T11:36:53;95160.77;;;32;73.74414
27908;BME280;15249;48.092;11.484;2022-10-23T11:37:58;95160.77;;;32;73.74414
27908;BME280;15249;48.092;11.484;2022-10-23T11:39:14;95160.77;;;32;73.74414
27908;BME280;15249;48.092;11.484;2022-10-23T11:40:20;95160.77;;;32;73.74414
27908;BME280;15249;48.092;11.484;2022-10-23T11:41:24;95160.77;;;32;73.74414
27908;BME280;15249;48.092;11.484;2022-10-23T11:42:30;95160.77;;;32;73.74414
27908;BME280;15249;48.092;11.484;2022-10-23T11:43:34;95160.77;;;32;73.74414
27908;BME280;15249;48.092;11.484;2022-10-23T11:44:46;95160.77;;;32;73.74414
27908;BME280;15249;48.092;11.484;2022-10-23T11:45:47;95160.77;;;32;73.74414
27908;BME280;15249;48.092;11.484;2022-10-23T11:46:59;95148.69;;;31.21;75.88379
27908;BME280;15249;48.092;11.484;2022-10-23T11:48:01;95148.69;;;31.21;75.88379
27908;BME280;15249;48.092;11.484;2022-10-23T11:49:18;95148.69;;;31.21;75.88379
27908;BME280;15249;48.092;11.484;2022-10-23T11:50:25;95148.69;;;31.21;75.88379
27908;BME280;15249;48.092;11.484;2022-10-23T11:51:29;95148.69;;;31.21;75.88379
27908;BME280;15249;48.092;11.484;2022-10-23T11:52:30;95148.69;;;31.21;75.88379
27908;BME280;15249;48.092;11.484;2022-10-23T11:53:38;95148.69;;;31.21;75.88379
27908;BME280;15249;48.092;11.484;2022-10-23T11:54:39;95148.69;;;31.21;75.88379
27908;BME280;15249;48.092;11.484;2022-10-23T11:55:56;95148.69;;;31.21;75.88379
27908;BME280;15249;48.092;11.484;2022-10-23T11:57:10;95132.06999999999;;;30.94;76.98828
27908;BME280;15249;48.092;11.484;2022-10-23T11:58:19;95132.06999999999;;;30.94;76.98828
27908;BME280;15249;48.092;11.484;2022-10-23T11:59:26;95132.06999999999;;;30.94;76.98828
27908;BME280;15249;48.092;11.484;2022-10-23T12:00:28;95132.06999999999;;;30.94;76.98828
27908;BME280;15249;48.092;11.484;2022-10-23T12:01:35;95132.06999999999;;;30.94;76.98828
27908;BME280;15249;48.092;11.484;2022-10-23T12:02:40;95132.06999999999;;;30.94;76.98828
27908;BME280;15249;48.092;11.484;2022-10-23T12:03:48;95132.06999999999;;;30.94;76.98828
27908;BME280;15249;48.092;11.484;2022-10-23T12:04:51;95132.06999999999;;;30.94;76.98828
27908;BME280;15249;48.092;11.484;2022-10-23T12:05:58;95132.06999999999;;;30.94;76.98828
27908;BME280;15249;48.092;11.484;2022-10-23T12:07:02;95132.06999999999;;;30.94;76.98828
27908;BME280;15249;48.092;11.484;2022-10-23T12:08:20;95126.59;;;31.32;76.375
27908;BME280;15249;48.092;11.484;2022-10-23T12:09:26;95126.59;;;31.32;76.375
27908;BME280;15249;48.092;11.484;2022-10-23T12:10:30;95126.59;;;31.32;76.375
27908;BME280;15249;48.092;11.484;2022-10-23T12:11:43;95126.59;;;31.32;76.375
27908;BME280;15249;48.092;11.484;2022-10-23T12:12:54;95126.59;;;31.32;76.375
27908;BME280;15249;48.092;11.484;2022-10-23T12:13:55;95126.59;;;31.32;76.375
27908;BME280;15249;48.092;11.484;2022-10-23T12:15:07;95126.59;;;31.32;76.375
27908;BME280;15249;48.092;11.484;2022-10-23T12:16:08;95126.59;;;31.32;76.375
27908;BME280;15249;48.092;11.484;2022-10-23T12:17:28;95126.59;;;31.32;76.375
27908;BME280;15249;48.092;11.484;2022-10-23T12:18:29;95126.59;;;31.32;76.375
27908;BME280;15249;48.092;11.484;2022-10-23T12:19:46;95126.59;;;31.32;76.375
27908;BME280;15249;48.092;11.484;2022-10-23T12:20:50;95126.59;;;31.32;76.375
27908;BME280;15249;48.092;11.484;2022-10-23T12:21:52;95126.59;;;31.32;76.375
27908;BME280;15249;48.092;11.484;2022-10-23T12:23:06;95126.59;;;31.32;76.375
27908;BME280;15249;48.092;11.484;2022-10-23T12:24:27;95126.59;;;31.32;76.375
27908;BME280;15249;48.092;11.484;2022-10-23T12:25:36;95126.59;;;31.32;76.375
27908;BME280;15249;48.092;11.484;2022-10-23T12:26:45;95126.59;;;31.32;76.375
27908;BME280;15249;48.092;11.484;2022-10-23T12:27:51;95126.59;;;31.32;76.375
27908;BME280;15249;48.092;11.484;2022-10-23T12:28:59;95126.59;;;31.32;76.375
27908;BME280;15249;48.092;11.484;2022-10-23T12:30:17;95098.51999999999;;;31.75;75.38672
27908;BME280;15249;48.092;11.484;2022-10-23T12:31:26;95098.51999999999;;;31.75;75.38672
27908;BME280;15249;48.092;11.484;2022-10-23T12:32:42;95098.51999999999;;;31.75;75.38672
27908;BME280;15249;48.092;11.484;2022-10-23T12:33:49;95098.51999999999;;;31.75;75.38672
27908;BME280;15249;48.092;11.484;2022-10-23T12:35:08;95098.51999999999;;;31.75;75.38672
27908;BME280;15249;48.092;11.484;2022-10-23T12:36:28;95098.51999999999;;;31.75;75.38672
27908;BME280;15249;48.092;11.484;2022-10-23T12:37:52;95098.51999999999;;;31.75;75.38672
27908;BME280;15249;48.092;11.484;2022-10-23T12:38:57;95098.51999999999;;;31.75;75.38672
27908;BME280;15249;48.092;11.484;2022-10-23T12:39:58;95098.51999999999;;;31.75;75.38672
27908;BME280;15249;48.092;11.484;2022-10-23T12:41:02;95098.51999999999;;;31.75;75.38672
27908;BME280;15249;48.092;11.484;2022-10-23T12:42:12;95098.51999999999;;;31.75;75.38672
27908;BME280;15249;48.092;11.484;2022-10-23T12:43:21;95098.51999999999;;;31.75;75.38672
27908;BME280;15249;48.092;11.484;2022-10-23T12:44:25;95098.51999999999;;;31.75;75.38672
27908;BME280;15249;48.092;11.484;2022-10-23T12:45:27;95098.51999999999;;;31.75;75.38672
27908;BME280;15249;48.092;11.484;2022-10-23T12:46:32;95098.51999999999;;;31.75;75.38672
27908;BME280;15249;48.092;11.484;2022-10-23T12:47:33;95098.51999999999;;;31.75;75.38672
27908;BME280;15249;48.092;11.484;2022-10-23T12:48:34;95098.51999999999;;;31.75;75.38672
27908;BME280;15249;48.092;11.484;2022-10-23T12:49:34;95098.51999999999;;;31.75;75.38672
27908;BME280;15249;48.092;11.484;2022-10-23T12:50:36;95087.41;;;28.48;79.50781
27908;BME280;15249;48.092;11.484;2022-10-23T12:51:36;95087.41;;;28.48;79.50781
27908;BME280;15249;48.092;11.484;2022-10-23T12:52:38;95087.41;;;28.48;79.50781
27908;BME280;15249;48.092;11.484;2022-10-23T12:53:39;95087.41;;;28.48;79.50781
27908;BME280;15249;48.092;11.484;2022-10-23T12:54:39;95087.41;;;28.48;79.50781
27908;BME280;15249;48.092;11.484;2022-10-23T12:55:47;95087.41;;;28.48;79.50781
27908;BME280;15249;48.092;11.484;2022-10-23T12:56:49;95087.41;;;28.48;79.50781
27908;BME280;15249;48.092;11.484;2022-10-23T12:57:50;95087.41;;;28.48;79.50781
27908;BME280;15249;48.092;11.484;2022-10-23T12:58:52;95087.41;;;28.48;79.50781
27908;BME280;15249;48.092;11.484;2022-10-23T12:59:56;95087.41;;;28.48;79.50781
27908;BME280;15249;48.092;11.484;2022-10-23T13:00:59;95087.41;;;28.48;79.50781
27908;BME280;15249;48.092;11.484;2022-10-23T13:02:00;95087.66;;;28.12;82.02344
27908;BME280;15249;48.092;11.484;2022-10-23T13:03:02;95087.66;;;28.12;82.02344
27908;BME280;15249;48.092;11.484;2022-10-23T13:04:07;95087.66;;;28.12;82.02344
27908;BME280;15249;48.092;11.484;2022-10-23T13:05:16;95087.66;;;28.12;82.02344
27908;BME280;15249;48.092;11.484;2022-10-23T13:06:17;95087.66;;;28.12;82.02344
27908;BME280;15249;48.092;11.484;2022-10-23T13:07:19;95087.66;;;28.12;82.02344
27908;BME280;15249;48.092;11.484;2022-10-23T13:08:21;95087.66;;;28.12;82.02344
27908;BME280;15249;48.092;11.484;2022-10-23T13:09:26;95087.66;;;28.12;82.02344
27908;BME280;15249;48.092;11.484;2022-10-23T13:10:28;95087.66;;;28.12;82.02344
27908;BME280;15249;48.092;11.484;2022-10-23T13:11:29;95087.66;;;28.12;82.02344
27908;BME280;15249;48.092;11.484;2022-10-23T13:12:32;95078.41;;;30.16;80.5957
27908;BME280;15249;48.092;11.484;2022-10-23T13:13:34;95078.41;;;30.16;80.5957
27908;BME280;15249;48.092;11.484;2022-10-23T13:14:36;95078.41;;;30.16;80.5957
27908;BME280;15249;48.092;11.484;2022-10-23T13:15:39;95078.41;;;30.16;80.5957
27908;BME280;15249;48.092;11.484;2022-10-23T13:16:40;95078.41;;;30.16;80.5957
27908;BME280;15249;48.092;11.484;2022-10-23T13:17:42;95078.41;;;30.16;80.5957
27908;BME280;15249;48.092;11.484;2022-10-23T13:18:42;95078.41;;;30.16;80.5957
27908;BME280;15249;48.092;11.484;2022-10-23T13:19:43;95078.41;;;30.16;80.5957
27908;BME280;15249;48.092;11.484;2022-10-23T13:20:55;95078.41;;;30.16;80.5957
27908;BME280;15249;48.092;11.484;2022-10-23T13:21:57;95078.41;;;30.16;80.5957
27908;BME280;15249;48.092;11.484;2022-10-23T13:23:00;95078.41;;;30.16;80.5957
27908;BME280;15249;48.092;11.484;2022-10-23T13:24:18;95078.41;;;30.16;80.5957
27908;BME280;15249;48.092;11.484;2022-10-23T13:25:21;95078.41;;;30.16;80.5957
27908;BME280;15249;48.092;11.484;2022-10-23T13:26:27;95078.41;;;30.16;80.5957
27908;BME280;15249;48.092;11.484;2022-10-23T13:27:32;95078.41;;;30.16;80.5957
27908;BME280;15249;48.092;11.484;2022-10-23T13:28:33;95078.41;;;30.16;80.5957
27908;BME280;15249;48.092;11.484;2022-10-23T13:29:40;95078.41;;;30.16;80.5957
27908;BME280;15249;48.092;11.484;2022-10-23T13:30:43;95078.41;;;30.16;80.5957
27908;BME280;15249;48.092;11.484;2022-10-23T13:31:44;95078.41;;;30.16;80.5957
27908;BME280;15249;48.092;11.484;2022-10-23T13:32:44;95078.41;;;30.16;80.5957
27908;BME280;15249;48.092;11.484;2022-10-23T13:33:46;95054.49;;;31.31;77.27539
27908;BME280;15249;48.092;11.484;2022-10-23T13:34:50;95054.49;;;31.31;77.27539
27908;BME280;15249;48.092;11.484;2022-10-23T13:35:55;95054.49;;;31.31;77.27539
27908;BME280;15249;48.092;11.484;2022-10-23T13:36:59;95054.49;;;31.31;77.27539
27908;BME280;15249;48.092;11.484;2022-10-23T13:38:06;95054.49;;;31.31;77.27539
27908;BME280;15249;48.092;11.484;2022-10-23T13:39:12;95054.49;;;31.31;77.27539
27908;BME280;15249;48.092;11.484;2022-10-23T13:40:20;95054.49;;;31.31;77.27539
27908;BME280;15249;48.092;11.484;2022-10-23T13:41:21;95054.49;;;31.31;77.27539
27908;BME280;15249;48.092;11.484;2022-10-23T13:42:22;95054.49;;;31.31;77.27539
27908;BME280;15249;48.092;11.484;2022-10-23T13:43:24;95054.49;;;31.31;77.27539
27908;BME280;15249;48.092;11.484;2022-10-23T13:44:25;95057.2;;;30.39;77.80762
27908;BME280;15249;48.092;11.484;2022-10-23T13:45:26;95057.2;;;30.39;77.80762
27908;BME280;15249;48.092;11.484;2022-10-23T13:46:27;95057.2;;;30.39;77.80762
27908;BME280;15249;48.092;11.484;2022-10-23T13:47:27;95057.2;;;30.39;77.80762
27908;BME280;15249;48.092;11.484;2022-10-23T13:48:28;95057.2;;;30.39;77.80762
27908;BME280;15249;48.092;11.484;2022-10-23T13:49:28;95057.2;;;30.39;77.80762
27908;BME280;15249;48.092;11.484;2022-10-23T13:50:30;95057.2;;;30.39;77.80762
27908;BME280;15249;48.092;11.484;2022-10-23T13:51:33;95057.2;;;30.39;77.80762
27908;BME280;15249;48.092;11.484;2022-10-23T13:52:34;95057.2;;;30.39;77.80762
27908;BME280;15249;48.092;11.484;2022-10-23T13:53:35;95057.2;;;30.39;77.80762
27908;BME280;15249;48.092;11.484;2022-10-23T13:54:35;95044.05;;;29.03;79.00879
27908;BME280;15249;48.092;11.484;2022-10-23T13:55:38;95044.05;;;29.03;79.00879
27908;BME280;15249;48.092;11.484;2022-10-23T13:56:39;95044.05;;;29.03;79.00879
27908;BME280;15249;48.092;11.484;2022-10-23T13:57:40;95044.05;;;29.03;79.00879
27908;BME280;15249;48.092;11.484;2022-10-23T13:58:41;95044.05;;;29.03;79.00879
27908;BME280;15249;48.092;11.484;2022-10-23T13:59:42;95044.05;;;29.03;79.00879
27908;BME280;15249;48.092;11.484;2022-10-23T14:00:44;95044.05;;;29.03;79.00879
27908;BME280;15249;48.092;11.484;2022-10-23T14:01:48;95044.05;;;29.03;79.00879
27908;BME280;15249;48.092;11.484;2022-10-23T14:02:48;95044.05;;;29.03;79.00879
27908;BME280;15249;48.092;11.484;2022-10-23T14:03:49;95044.05;;;29.03;79.00879
27908;BME280;15249;48.092;11.484;2022-10-23T14:04:50;95044.05;;;29.03;79.00879
27908;BME280;15249;48.092;11.484;2022-10-23T14:05:50;95052.95;;;27.94;80.77539
27908;BME280;15249;48.092;11.484;2022-10-23T14:06:57;95052.95;;;27.94;80.77539
27908;BME280;15249;48.092;11.484;2022-10-23T14:07:57;95052.95;;;27.94;80.77539
27908;BME280;15249;48.092;11.484;2022-10-23T14:08:58;95052.95;;;27.94;80.77539
27908;BME280;15249;48.092;11.484;2022-10-23T14:09:58;95052.95;;;27.94;80.77539
27908;BME280;15249;48.092;11.484;2022-10-23T14:10:59;95052.95;;;27.94;80.77539
27908;BME280;15249;48.092;11.484;2022-10-23T14:11:59;95052.95;;;27.94;80.77539